sensor_id;sensor_type;location;lat;lon;timestamp;temperature;humidity
44647;DHT22;56315;-33.902;151.160;2023-03-22T00:01:56;27.60;99.90
44647;DHT22;56315;-33.902;151.160;2023-03-22T00:04:24;27.30;99.90
44647;DHT22;56315;-33.902;151.160;2023-03-22T00:06:51;27.10;99.90
44647;DHT22;56315;-33.902;151.160;2023-03-22T00:09:19;26.70;99.90
44647;DHT22;56315;-33.902;151.160;2023-03-22T00:11:46;26.40;99.90
44647;DHT22;56315;-33.902;151.160;2023-03-22T00:14:17;26.20;99.90
44647;DHT22;56315;-33.902;151.160;2023-03-22T00:16:44;26.00;99.90
44647;DHT22;56315;-33.902;151.160;2023-03-22T00:19:14;25.70;99.90
44647;DHT22;56315;-33.902;151.160;2023-03-22T00:21:43;25.50;99.90
44647;DHT22;56315;-33.902;151.160;2023-03-22T00:31:51;25.20;99.90
44647;DHT22;56315;-33.902;151.160;2023-03-22T00:34:21;25.20;99.90
44647;DHT22;56315;-33.902;151.160;2023-03-22T00:36:48;25.30;99.90
44647;DHT22;56315;-33.902;151.160;2023-03-22T00:39:17;25.40;99.90
44647;DHT22;56315;-33.902;151.160;2023-03-22T00:41:44;25.40;99.90
44647;DHT22;56315;-33.902;151.160;2023-03-22T00:46:42;25.40;99.90
44647;DHT22;56315;-33.902;151.160;2023-03-22T00:49:09;25.50;99.90
44647;DHT22;56315;-33.902;151.160;2023-03-22T00:51:37;25.70;99.90
44647;DHT22;56315;-33.902;151.160;2023-03-22T00:54:04;25.70;99.90
44647;DHT22;56315;-33.902;151.160;2023-03-22T00:56:32;25.80;99.90
44647;DHT22;56315;-33.902;151.160;2023-03-22T00:59:03;25.90;99.90
44647;DHT22;56315;-33.902;151.160;2023-03-22T01:01:31;26.00;99.90
44647;DHT22;56315;-33.902;151.160;2023-03-22T01:03:58;26.00;99.90
44647;DHT22;56315;-33.902;151.160;2023-03-22T01:06:25;26.00;99.90
44647;DHT22;56315;-33.902;151.160;2023-03-22T01:08:52;26.00;99.90
44647;DHT22;56315;-33.902;151.160;2023-03-22T01:11:20;25.90;99.90
44647;DHT22;56315;-33.902;151.160;2023-03-22T01:13:47;25.80;99.90
44647;DHT22;56315;-33.902;151.160;2023-03-22T01:16:16;25.90;99.90
44647;DHT22;56315;-33.902;151.160;2023-03-22T01:18:43;25.90;99.90
44647;DHT22;56315;-33.902;151.160;2023-03-22T01:21:11;26.00;99.90
44647;DHT22;56315;-33.902;151.160;2023-03-22T01:23:38;26.00;99.90
44647;DHT22;56315;-33.902;151.160;2023-03-22T01:26:05;26.00;99.90
44647;DHT22;56315;-33.902;151.160;2023-03-22T01:28:33;25.90;99.90
44647;DHT22;56315;-33.902;151.160;2023-03-22T01:31:01;25.80;99.90
44647;DHT22;56315;-33.902;151.160;2023-03-22T01:33:28;25.50;99.90
44647;DHT22;56315;-33.902;151.160;2023-03-22T01:35:56;25.50;99.90
44647;DHT22;56315;-33.902;151.160;2023-03-22T01:38:23;25.30;99.90
44647;DHT22;56315;-33.902;151.160;2023-03-22T01:40:50;25.30;99.90
44647;DHT22;56315;-33.902;151.160;2023-03-22T01:43:17;25.30;99.90
44647;DHT22;56315;-33.902;151.160;2023-03-22T01:45:49;25.20;99.90
44647;DHT22;56315;-33.902;151.160;2023-03-22T01:53:38;25.10;99.90
44647;DHT22;56315;-33.902;151.160;2023-03-22T01:56:06;25.20;99.90
44647;DHT22;56315;-33.902;151.160;2023-03-22T01:58:36;25.30;99.90
44647;DHT22;56315;-33.902;151.160;2023-03-22T02:01:05;25.40;99.90
44647;DHT22;56315;-33.902;151.160;2023-03-22T02:03:58;25.50;99.90
44647;DHT22;56315;-33.902;151.160;2023-03-22T02:06:29;25.60;99.90
44647;DHT22;56315;-33.902;151.160;2023-03-22T02:08:58;25.70;99.90
44647;DHT22;56315;-33.902;151.160;2023-03-22T02:11:30;25.70;99.90
44647;DHT22;56315;-33.902;151.160;2023-03-22T02:42:23;25.60;99.90
44647;DHT22;56315;-33.902;151.160;2023-03-22T02:47:42;25.60;99.90
44647;DHT22;56315;-33.902;151.160;2023-03-22T02:50:45;25.50;99.90
44647;DHT22;56315;-33.902;151.160;2023-03-22T02:56:01;25.70;99.90
44647;DHT22;56315;-33.902;151.160;2023-03-22T02:58:44;25.90;99.90
44647;DHT22;56315;-33.902;151.160;2023-03-22T03:03:49;26.50;99.90
44647;DHT22;56315;-33.902;151.160;2023-03-22T03:06:20;26.70;99.90
44647;DHT22;56315;-33.902;151.160;2023-03-22T03:08:51;26.70;99.90
44647;DHT22;56315;-33.902;151.160;2023-03-22T03:11:19;26.70;99.90
44647;DHT22;56315;-33.902;151.160;2023-03-22T03:13:48;26.80;99.90
44647;DHT22;56315;-33.902;151.160;2023-03-22T03:16:20;27.00;99.90
44647;DHT22;56315;-33.902;151.160;2023-03-22T03:27:08;27.10;99.90
44647;DHT22;56315;-33.902;151.160;2023-03-22T03:32:33;27.10;99.90
44647;DHT22;56315;-33.902;151.160;2023-03-22T03:35:06;27.10;99.90
44647;DHT22;56315;-33.902;151.160;2023-03-22T03:37:43;27.00;99.90
44647;DHT22;56315;-33.902;151.160;2023-03-22T03:40:19;26.80;99.90
44647;DHT22;56315;-33.902;151.160;2023-03-22T03:42:50;26.70;99.90
44647;DHT22;56315;-33.902;151.160;2023-03-22T03:45:19;26.50;99.90
44647;DHT22;56315;-33.902;151.160;2023-03-22T03:47:49;26.30;99.90
44647;DHT22;56315;-33.902;151.160;2023-03-22T03:50:23;26.20;99.90
44647;DHT22;56315;-33.902;151.160;2023-03-22T03:52:53;26.10;99.90
44647;DHT22;56315;-33.902;151.160;2023-03-22T03:55:22;26.20;99.90
44647;DHT22;56315;-33.902;151.160;2023-03-22T03:57:49;26.10;99.90
44647;DHT22;56315;-33.902;151.160;2023-03-22T04:00:17;26.20;99.90
44647;DHT22;56315;-33.902;151.160;2023-03-22T04:02:45;26.00;99.90
44647;DHT22;56315;-33.902;151.160;2023-03-22T04:05:13;26.00;99.90
44647;DHT22;56315;-33.902;151.160;2023-03-22T04:07:40;25.90;99.90
44647;DHT22;56315;-33.902;151.160;2023-03-22T04:10:08;25.90;99.90
44647;DHT22;56315;-33.902;151.160;2023-03-22T04:12:35;25.90;99.90
44647;DHT22;56315;-33.902;151.160;2023-03-22T04:15:04;25.90;99.90
44647;DHT22;56315;-33.902;151.160;2023-03-22T04:17:32;25.90;99.90
44647;DHT22;56315;-33.902;151.160;2023-03-22T04:20:00;26.00;99.90
44647;DHT22;56315;-33.902;151.160;2023-03-22T04:22:28;26.10;99.90
44647;DHT22;56315;-33.902;151.160;2023-03-22T04:25:03;26.40;99.90
44647;DHT22;56315;-33.902;151.160;2023-03-22T04:27:30;26.40;99.90
44647;DHT22;56315;-33.902;151.160;2023-03-22T04:29:58;26.60;99.90
44647;DHT22;56315;-33.902;151.160;2023-03-22T04:32:26;26.60;99.90
44647;DHT22;56315;-33.902;151.160;2023-03-22T04:34:53;26.70;99.90
44647;DHT22;56315;-33.902;151.160;2023-03-22T04:37:20;26.70;99.90
44647;DHT22;56315;-33.902;151.160;2023-03-22T04:39:52;26.80;99.90
44647;DHT22;56315;-33.902;151.160;2023-03-22T04:42:20;26.80;99.90
44647;DHT22;56315;-33.902;151.160;2023-03-22T04:44:47;26.80;99.90
44647;DHT22;56315;-33.902;151.160;2023-03-22T04:47:14;26.70;99.90
44647;DHT22;56315;-33.902;151.160;2023-03-22T04:49:42;26.50;99.90
44647;DHT22;56315;-33.902;151.160;2023-03-22T04:52:11;26.50;99.90
44647;DHT22;56315;-33.902;151.160;2023-03-22T04:54:38;26.50;99.90
44647;DHT22;56315;-33.902;151.160;2023-03-22T04:57:06;26.40;99.90
44647;DHT22;56315;-33.902;151.160;2023-03-22T04:59:33;26.30;99.90
44647;DHT22;56315;-33.902;151.160;2023-03-22T05:02:03;26.10;99.90
44647;DHT22;56315;-33.902;151.160;2023-03-22T05:04:31;26.00;99.90
44647;DHT22;56315;-33.902;151.160;2023-03-22T05:06:58;26.00;99.90
44647;DHT22;56315;-33.902;151.160;2023-03-22T05:09:26;26.00;99.90
44647;DHT22;56315;-33.902;151.160;2023-03-22T05:11:53;26.00;99.90
44647;DHT22;56315;-33.902;151.160;2023-03-22T05:14:20;26.00;99.90
44647;DHT22;56315;-33.902;151.160;2023-03-22T05:16:47;26.00;99.90
44647;DHT22;56315;-33.902;151.160;2023-03-22T05:19:15;26.00;99.90
44647;DHT22;56315;-33.902;151.160;2023-03-22T05:21:48;26.10;99.90
44647;DHT22;56315;-33.902;151.160;2023-03-22T05:24:24;26.10;99.90
44647;DHT22;56315;-33.902;151.160;2023-03-22T05:26:52;26.10;99.90
44647;DHT22;56315;-33.902;151.160;2023-03-22T05:29:21;26.20;99.90
44647;DHT22;56315;-33.902;151.160;2023-03-22T05:31:48;26.10;99.90
44647;DHT22;56315;-33.902;151.160;2023-03-22T05:34:16;26.10;99.90
44647;DHT22;56315;-33.902;151.160;2023-03-22T05:36:43;26.00;99.90
44647;DHT22;56315;-33.902;151.160;2023-03-22T05:39:12;25.90;99.90
44647;DHT22;56315;-33.902;151.160;2023-03-22T05:41:41;25.90;99.90
44647;DHT22;56315;-33.902;151.160;2023-03-22T05:44:08;25.80;99.90
44647;DHT22;56315;-33.902;151.160;2023-03-22T05:46:36;25.80;99.90
44647;DHT22;56315;-33.902;151.160;2023-03-22T05:49:03;25.70;99.90
44647;DHT22;56315;-33.902;151.160;2023-03-22T05:51:30;25.60;99.90
44647;DHT22;56315;-33.902;151.160;2023-03-22T05:53:58;25.50;99.90
44647;DHT22;56315;-33.902;151.160;2023-03-22T05:56:25;25.40;99.90
44647;DHT22;56315;-33.902;151.160;2023-03-22T05:58:53;25.40;99.90
44647;DHT22;56315;-33.902;151.160;2023-03-22T06:01:20;25.30;99.90
44647;DHT22;56315;-33.902;151.160;2023-03-22T06:03:48;25.30;99.90
44647;DHT22;56315;-33.902;151.160;2023-03-22T06:06:16;25.20;99.90
44647;DHT22;56315;-33.902;151.160;2023-03-22T06:08:43;25.10;99.90
44647;DHT22;56315;-33.902;151.160;2023-03-22T06:11:11;25.10;99.90
44647;DHT22;56315;-33.902;151.160;2023-03-22T06:13:38;25.00;99.90
44647;DHT22;56315;-33.902;151.160;2023-03-22T06:16:06;24.90;99.90
44647;DHT22;56315;-33.902;151.160;2023-03-22T06:18:33;24.90;99.90
44647;DHT22;56315;-33.902;151.160;2023-03-22T06:21:01;24.90;99.90
44647;DHT22;56315;-33.902;151.160;2023-03-22T06:23:28;24.90;99.90
44647;DHT22;56315;-33.902;151.160;2023-03-22T06:25:56;24.90;99.90
44647;DHT22;56315;-33.902;151.160;2023-03-22T06:28:23;24.90;99.90
44647;DHT22;56315;-33.902;151.160;2023-03-22T06:30:55;25.00;99.90
44647;DHT22;56315;-33.902;151.160;2023-03-22T06:33:22;24.90;99.90
44647;DHT22;56315;-33.902;151.160;2023-03-22T06:35:50;24.90;99.90
44647;DHT22;56315;-33.902;151.160;2023-03-22T06:38:17;24.90;99.90
44647;DHT22;56315;-33.902;151.160;2023-03-22T06:40:44;24.90;99.90
44647;DHT22;56315;-33.902;151.160;2023-03-22T06:43:12;25.00;99.90
44647;DHT22;56315;-33.902;151.160;2023-03-22T06:45:39;25.00;99.90
44647;DHT22;56315;-33.902;151.160;2023-03-22T06:48:07;25.00;99.90
44647;DHT22;56315;-33.902;151.160;2023-03-22T06:50:34;25.00;99.90
44647;DHT22;56315;-33.902;151.160;2023-03-22T06:53:05;24.90;99.90
44647;DHT22;56315;-33.902;151.160;2023-03-22T06:55:32;24.80;99.90
44647;DHT22;56315;-33.902;151.160;2023-03-22T06:58:00;24.70;99.90
44647;DHT22;56315;-33.902;151.160;2023-03-22T07:00:28;24.70;99.90
44647;DHT22;56315;-33.902;151.160;2023-03-22T07:02:57;24.70;99.90
44647;DHT22;56315;-33.902;151.160;2023-03-22T07:05:24;24.60;99.90
44647;DHT22;56315;-33.902;151.160;2023-03-22T07:07:52;24.70;99.90
44647;DHT22;56315;-33.902;151.160;2023-03-22T07:10:19;24.60;99.90
44647;DHT22;56315;-33.902;151.160;2023-03-22T07:12:47;24.60;99.90
44647;DHT22;56315;-33.902;151.160;2023-03-22T07:15:14;24.60;99.90
44647;DHT22;56315;-33.902;151.160;2023-03-22T07:17:43;24.60;99.90
44647;DHT22;56315;-33.902;151.160;2023-03-22T07:20:10;24.60;99.90
44647;DHT22;56315;-33.902;151.160;2023-03-22T07:22:37;24.50;99.90
44647;DHT22;56315;-33.902;151.160;2023-03-22T07:25:05;24.50;99.90
44647;DHT22;56315;-33.902;151.160;2023-03-22T07:27:33;24.40;99.90
44647;DHT22;56315;-33.902;151.160;2023-03-22T07:30:01;24.30;99.90
44647;DHT22;56315;-33.902;151.160;2023-03-22T07:32:28;24.30;99.90
44647;DHT22;56315;-33.902;151.160;2023-03-22T07:34:55;24.20;99.90
44647;DHT22;56315;-33.902;151.160;2023-03-22T07:37:23;24.10;99.90
44647;DHT22;56315;-33.902;151.160;2023-03-22T07:39:51;24.00;99.90
44647;DHT22;56315;-33.902;151.160;2023-03-22T07:42:18;23.80;99.90
44647;DHT22;56315;-33.902;151.160;2023-03-22T07:44:46;23.80;99.90
44647;DHT22;56315;-33.902;151.160;2023-03-22T07:47:15;23.70;99.90
44647;DHT22;56315;-33.902;151.160;2023-03-22T07:49:42;23.60;99.90
44647;DHT22;56315;-33.902;151.160;2023-03-22T07:52:11;23.50;99.90
44647;DHT22;56315;-33.902;151.160;2023-03-22T07:54:38;23.40;99.90
44647;DHT22;56315;-33.902;151.160;2023-03-22T07:57:09;23.40;99.90
44647;DHT22;56315;-33.902;151.160;2023-03-22T07:59:36;23.30;99.90
44647;DHT22;56315;-33.902;151.160;2023-03-22T08:02:04;23.30;99.90
44647;DHT22;56315;-33.902;151.160;2023-03-22T08:04:31;23.20;99.90
44647;DHT22;56315;-33.902;151.160;2023-03-22T08:06:59;23.20;99.90
44647;DHT22;56315;-33.902;151.160;2023-03-22T08:09:27;23.10;99.90
44647;DHT22;56315;-33.902;151.160;2023-03-22T08:11:54;23.10;99.90
44647;DHT22;56315;-33.902;151.160;2023-03-22T08:14:21;23.10;99.90
44647;DHT22;56315;-33.902;151.160;2023-03-22T08:16:49;23.10;99.90
44647;DHT22;56315;-33.902;151.160;2023-03-22T08:19:16;23.10;99.90
44647;DHT22;56315;-33.902;151.160;2023-03-22T08:21:44;23.10;99.90
44647;DHT22;56315;-33.902;151.160;2023-03-22T08:24:11;23.10;99.90
44647;DHT22;56315;-33.902;151.160;2023-03-22T08:26:38;23.10;99.90
44647;DHT22;56315;-33.902;151.160;2023-03-22T08:29:06;23.10;99.90
44647;DHT22;56315;-33.902;151.160;2023-03-22T08:31:33;23.10;99.90
44647;DHT22;56315;-33.902;151.160;2023-03-22T08:34:01;23.10;99.90
44647;DHT22;56315;-33.902;151.160;2023-03-22T08:36:28;23.10;99.90
44647;DHT22;56315;-33.902;151.160;2023-03-22T08:38:55;23.10;99.90
44647;DHT22;56315;-33.902;151.160;2023-03-22T08:41:23;23.10;99.90
44647;DHT22;56315;-33.902;151.160;2023-03-22T08:43:53;23.10;99.90
44647;DHT22;56315;-33.902;151.160;2023-03-22T08:46:21;23.20;99.90
44647;DHT22;56315;-33.902;151.160;2023-03-22T08:48:48;23.20;99.90
44647;DHT22;56315;-33.902;151.160;2023-03-22T08:51:20;23.20;99.90
44647;DHT22;56315;-33.902;151.160;2023-03-22T08:53:48;23.20;99.90
44647;DHT22;56315;-33.902;151.160;2023-03-22T08:56:16;23.20;99.90
44647;DHT22;56315;-33.902;151.160;2023-03-22T08:58:44;23.20;99.90
44647;DHT22;56315;-33.902;151.160;2023-03-22T09:01:13;23.20;99.90
44647;DHT22;56315;-33.902;151.160;2023-03-22T09:03:41;23.20;99.90
44647;DHT22;56315;-33.902;151.160;2023-03-22T09:06:09;23.20;99.90
44647;DHT22;56315;-33.902;151.160;2023-03-22T09:08:37;23.20;99.90
44647;DHT22;56315;-33.902;151.160;2023-03-22T09:11:06;23.20;99.90
44647;DHT22;56315;-33.902;151.160;2023-03-22T09:13:34;23.20;99.90
44647;DHT22;56315;-33.902;151.160;2023-03-22T09:16:03;23.20;99.90
44647;DHT22;56315;-33.902;151.160;2023-03-22T09:18:32;23.20;99.90
44647;DHT22;56315;-33.902;151.160;2023-03-22T09:20:59;23.20;99.90
44647;DHT22;56315;-33.902;151.160;2023-03-22T09:23:27;23.20;99.90
44647;DHT22;56315;-33.902;151.160;2023-03-22T09:25:58;23.10;99.90
44647;DHT22;56315;-33.902;151.160;2023-03-22T09:28:26;23.20;99.90
44647;DHT22;56315;-33.902;151.160;2023-03-22T09:30:53;23.20;99.90
44647;DHT22;56315;-33.902;151.160;2023-03-22T09:33:21;23.20;99.90
44647;DHT22;56315;-33.902;151.160;2023-03-22T09:35:48;23.20;99.90
44647;DHT22;56315;-33.902;151.160;2023-03-22T09:38:16;23.20;99.90
44647;DHT22;56315;-33.902;151.160;2023-03-22T09:40:56;23.20;99.90
44647;DHT22;56315;-33.902;151.160;2023-03-22T09:43:41;23.20;99.90
44647;DHT22;56315;-33.902;151.160;2023-03-22T09:46:23;23.20;99.90
44647;DHT22;56315;-33.902;151.160;2023-03-22T09:48:53;23.20;99.90
44647;DHT22;56315;-33.902;151.160;2023-03-22T09:54:37;23.20;99.90
44647;DHT22;56315;-33.902;151.160;2023-03-22T09:57:31;23.20;99.90
44647;DHT22;56315;-33.902;151.160;2023-03-22T10:05:25;23.10;99.90
44647;DHT22;56315;-33.902;151.160;2023-03-22T10:10:38;23.10;99.90
44647;DHT22;56315;-33.902;151.160;2023-03-22T10:13:28;23.10;99.90
44647;DHT22;56315;-33.902;151.160;2023-03-22T10:16:02;23.10;99.90
44647;DHT22;56315;-33.902;151.160;2023-03-22T10:18:37;23.10;99.90
44647;DHT22;56315;-33.902;151.160;2023-03-22T10:21:10;23.10;99.90
44647;DHT22;56315;-33.902;151.160;2023-03-22T10:24:00;23.10;99.90
44647;DHT22;56315;-33.902;151.160;2023-03-22T10:26:33;23.00;99.90
44647;DHT22;56315;-33.902;151.160;2023-03-22T10:29:28;23.00;99.90
44647;DHT22;56315;-33.902;151.160;2023-03-22T10:31:51;23.10;99.90
44647;DHT22;56315;-33.902;151.160;2023-03-22T10:34:26;23.00;99.90
44647;DHT22;56315;-33.902;151.160;2023-03-22T10:36:59;23.00;99.90
44647;DHT22;56315;-33.902;151.160;2023-03-22T10:39:50;23.00;99.90
44647;DHT22;56315;-33.902;151.160;2023-03-22T10:42:24;23.00;99.90
44647;DHT22;56315;-33.902;151.160;2023-03-22T10:45:02;22.90;99.90
44647;DHT22;56315;-33.902;151.160;2023-03-22T10:47:34;22.90;99.90
44647;DHT22;56315;-33.902;151.160;2023-03-22T10:50:06;22.90;99.90
44647;DHT22;56315;-33.902;151.160;2023-03-22T10:52:44;22.90;99.90
44647;DHT22;56315;-33.902;151.160;2023-03-22T10:55:15;22.80;99.90
44647;DHT22;56315;-33.902;151.160;2023-03-22T10:58:09;22.80;99.90
44647;DHT22;56315;-33.902;151.160;2023-03-22T11:01:02;22.80;99.90
44647;DHT22;56315;-33.902;151.160;2023-03-22T11:03:48;22.80;99.90
44647;DHT22;56315;-33.902;151.160;2023-03-22T11:06:28;22.80;99.90
44647;DHT22;56315;-33.902;151.160;2023-03-22T11:09:11;22.80;99.90
44647;DHT22;56315;-33.902;151.160;2023-03-22T11:11:58;22.80;99.90
44647;DHT22;56315;-33.902;151.160;2023-03-22T11:14:44;22.70;99.90
44647;DHT22;56315;-33.902;151.160;2023-03-22T11:17:17;22.70;99.90
44647;DHT22;56315;-33.902;151.160;2023-03-22T11:20:00;22.70;99.90
44647;DHT22;56315;-33.902;151.160;2023-03-22T11:22:42;22.60;99.90
44647;DHT22;56315;-33.902;151.160;2023-03-22T11:31:09;22.50;99.90
44647;DHT22;56315;-33.902;151.160;2023-03-22T11:33:37;22.40;99.90
44647;DHT22;56315;-33.902;151.160;2023-03-22T11:36:17;22.30;99.90
44647;DHT22;56315;-33.902;151.160;2023-03-22T11:38:45;22.30;99.90
44647;DHT22;56315;-33.902;151.160;2023-03-22T11:41:23;22.20;99.90
44647;DHT22;56315;-33.902;151.160;2023-03-22T11:43:57;22.20;99.90
44647;DHT22;56315;-33.902;151.160;2023-03-22T11:46:27;22.20;99.90
44647;DHT22;56315;-33.902;151.160;2023-03-22T11:49:00;22.10;99.90
44647;DHT22;56315;-33.902;151.160;2023-03-22T11:51:30;22.10;99.90
44647;DHT22;56315;-33.902;151.160;2023-03-22T11:56:44;21.90;99.90
44647;DHT22;56315;-33.902;151.160;2023-03-22T11:59:15;21.80;99.90
44647;DHT22;56315;-33.902;151.160;2023-03-22T12:01:47;21.80;99.90
44647;DHT22;56315;-33.902;151.160;2023-03-22T12:04:17;21.70;99.90
44647;DHT22;56315;-33.902;151.160;2023-03-22T12:06:48;21.60;99.90
44647;DHT22;56315;-33.902;151.160;2023-03-22T12:11:55;21.50;99.90
44647;DHT22;56315;-33.902;151.160;2023-03-22T12:14:34;21.50;99.90
44647;DHT22;56315;-33.902;151.160;2023-03-22T12:22:25;21.20;99.90
44647;DHT22;56315;-33.902;151.160;2023-03-22T12:24:53;21.20;99.90
44647;DHT22;56315;-33.902;151.160;2023-03-22T12:27:23;21.20;99.90
44647;DHT22;56315;-33.902;151.160;2023-03-22T12:30:11;21.20;99.90
44647;DHT22;56315;-33.902;151.160;2023-03-22T12:35:30;21.20;99.90
44647;DHT22;56315;-33.902;151.160;2023-03-22T12:38:21;21.20;99.90
44647;DHT22;56315;-33.902;151.160;2023-03-22T12:40:51;21.20;99.90
44647;DHT22;56315;-33.902;151.160;2023-03-22T12:43:42;21.20;99.90
44647;DHT22;56315;-33.902;151.160;2023-03-22T12:46:22;21.30;99.90
44647;DHT22;56315;-33.902;151.160;2023-03-22T12:49:04;21.30;99.90
44647;DHT22;56315;-33.902;151.160;2023-03-22T12:51:33;21.40;99.90
44647;DHT22;56315;-33.902;151.160;2023-03-22T12:54:01;21.30;99.90
44647;DHT22;56315;-33.902;151.160;2023-03-22T12:56:41;21.30;99.90
44647;DHT22;56315;-33.902;151.160;2023-03-22T12:59:18;21.30;99.90
44647;DHT22;56315;-33.902;151.160;2023-03-22T13:02:15;21.30;99.90
44647;DHT22;56315;-33.902;151.160;2023-03-22T13:07:29;21.30;99.90
44647;DHT22;56315;-33.902;151.160;2023-03-22T13:09:58;21.40;99.90
44647;DHT22;56315;-33.902;151.160;2023-03-22T13:12:28;21.40;99.90
44647;DHT22;56315;-33.902;151.160;2023-03-22T13:15:16;21.40;99.90
44647;DHT22;56315;-33.902;151.160;2023-03-22T13:17:48;21.50;99.90
44647;DHT22;56315;-33.902;151.160;2023-03-22T13:27:56;21.60;99.90
44647;DHT22;56315;-33.902;151.160;2023-03-22T13:33:34;21.70;99.90
44647;DHT22;56315;-33.902;151.160;2023-03-22T13:36:22;21.80;99.90
44647;DHT22;56315;-33.902;151.160;2023-03-22T13:38:58;21.80;99.90
44647;DHT22;56315;-33.902;151.160;2023-03-22T13:41:31;21.80;99.90
44647;DHT22;56315;-33.902;151.160;2023-03-22T13:44:17;21.80;99.90
44647;DHT22;56315;-33.902;151.160;2023-03-22T13:46:53;21.90;99.90
44647;DHT22;56315;-33.902;151.160;2023-03-22T13:49:57;21.90;99.90
44647;DHT22;56315;-33.902;151.160;2023-03-22T13:52:39;21.90;99.90
44647;DHT22;56315;-33.902;151.160;2023-03-22T13:55:34;21.90;99.90
44647;DHT22;56315;-33.902;151.160;2023-03-22T13:58:03;21.90;99.90
44647;DHT22;56315;-33.902;151.160;2023-03-22T14:03:01;21.80;99.90
44647;DHT22;56315;-33.902;151.160;2023-03-22T14:05:33;21.80;99.90
44647;DHT22;56315;-33.902;151.160;2023-03-22T14:08:02;21.80;99.90
44647;DHT22;56315;-33.902;151.160;2023-03-22T14:10:42;21.80;99.90
44647;DHT22;56315;-33.902;151.160;2023-03-22T14:13:33;21.90;99.90
44647;DHT22;56315;-33.902;151.160;2023-03-22T14:18:35;21.90;99.90
44647;DHT22;56315;-33.902;151.160;2023-03-22T14:24:17;21.90;99.90
44647;DHT22;56315;-33.902;151.160;2023-03-22T14:26:52;21.80;99.90
44647;DHT22;56315;-33.902;151.160;2023-03-22T14:29:22;21.80;99.90
44647;DHT22;56315;-33.902;151.160;2023-03-22T14:32:01;21.80;99.90
44647;DHT22;56315;-33.902;151.160;2023-03-22T14:34:31;21.70;99.90
44647;DHT22;56315;-33.902;151.160;2023-03-22T14:37:04;21.70;99.90
44647;DHT22;56315;-33.902;151.160;2023-03-22T14:39:38;21.70;99.90
44647;DHT22;56315;-33.902;151.160;2023-03-22T14:42:27;21.70;99.90
44647;DHT22;56315;-33.902;151.160;2023-03-22T14:44:58;21.80;99.90
44647;DHT22;56315;-33.902;151.160;2023-03-22T14:47:29;21.70;99.90
44647;DHT22;56315;-33.902;151.160;2023-03-22T14:50:11;21.80;99.90
44647;DHT22;56315;-33.902;151.160;2023-03-22T14:52:39;21.70;99.90
44647;DHT22;56315;-33.902;151.160;2023-03-22T14:55:13;21.70;99.90
44647;DHT22;56315;-33.902;151.160;2023-03-22T14:57:49;21.70;99.90
44647;DHT22;56315;-33.902;151.160;2023-03-22T15:00:17;21.70;99.90
44647;DHT22;56315;-33.902;151.160;2023-03-22T15:02:59;21.60;99.90
44647;DHT22;56315;-33.902;151.160;2023-03-22T15:05:37;21.60;99.90
44647;DHT22;56315;-33.902;151.160;2023-03-22T15:08:11;21.60;99.90
44647;DHT22;56315;-33.902;151.160;2023-03-22T15:11:07;21.60;99.90
44647;DHT22;56315;-33.902;151.160;2023-03-22T15:13:37;21.60;99.90
44647;DHT22;56315;-33.902;151.160;2023-03-22T15:16:06;21.60;99.90
44647;DHT22;56315;-33.902;151.160;2023-03-22T15:18:35;21.60;99.90
44647;DHT22;56315;-33.902;151.160;2023-03-22T15:21:04;21.60;99.90
44647;DHT22;56315;-33.902;151.160;2023-03-22T15:23:39;21.50;99.90
44647;DHT22;56315;-33.902;151.160;2023-03-22T15:26:32;21.50;99.90
44647;DHT22;56315;-33.902;151.160;2023-03-22T15:29:01;21.50;99.90
44647;DHT22;56315;-33.902;151.160;2023-03-22T15:31:43;21.40;99.90
44647;DHT22;56315;-33.902;151.160;2023-03-22T15:34:17;21.40;99.90
44647;DHT22;56315;-33.902;151.160;2023-03-22T15:36:46;21.40;99.90
44647;DHT22;56315;-33.902;151.160;2023-03-22T15:39:44;21.30;99.90
44647;DHT22;56315;-33.902;151.160;2023-03-22T15:42:14;21.30;99.90
44647;DHT22;56315;-33.902;151.160;2023-03-22T15:45:11;21.30;99.90
44647;DHT22;56315;-33.902;151.160;2023-03-22T15:50:40;21.30;99.90
44647;DHT22;56315;-33.902;151.160;2023-03-22T15:53:34;21.20;99.90
44647;DHT22;56315;-33.902;151.160;2023-03-22T15:56:01;21.20;99.90
44647;DHT22;56315;-33.902;151.160;2023-03-22T15:58:31;21.20;99.90
44647;DHT22;56315;-33.902;151.160;2023-03-22T16:01:17;21.20;99.90
44647;DHT22;56315;-33.902;151.160;2023-03-22T16:03:49;21.20;99.90
44647;DHT22;56315;-33.902;151.160;2023-03-22T16:06:18;21.20;99.90
44647;DHT22;56315;-33.902;151.160;2023-03-22T16:08:45;21.20;99.90
44647;DHT22;56315;-33.902;151.160;2023-03-22T16:11:13;21.10;99.90
44647;DHT22;56315;-33.902;151.160;2023-03-22T16:13:43;21.10;99.90
44647;DHT22;56315;-33.902;151.160;2023-03-22T16:16:14;21.10;99.90
44647;DHT22;56315;-33.902;151.160;2023-03-22T16:18:42;21.10;99.90
44647;DHT22;56315;-33.902;151.160;2023-03-22T16:21:14;21.00;99.90
44647;DHT22;56315;-33.902;151.160;2023-03-22T16:23:42;21.00;99.90
44647;DHT22;56315;-33.902;151.160;2023-03-22T16:26:14;20.90;99.90
44647;DHT22;56315;-33.902;151.160;2023-03-22T16:28:43;20.80;99.90
44647;DHT22;56315;-33.902;151.160;2023-03-22T16:31:15;20.80;99.90
44647;DHT22;56315;-33.902;151.160;2023-03-22T16:33:44;20.80;99.90
44647;DHT22;56315;-33.902;151.160;2023-03-22T16:36:14;20.80;99.90
44647;DHT22;56315;-33.902;151.160;2023-03-22T16:38:42;20.80;99.90
44647;DHT22;56315;-33.902;151.160;2023-03-22T16:41:26;20.80;99.90
44647;DHT22;56315;-33.902;151.160;2023-03-22T16:43:56;20.80;99.90
44647;DHT22;56315;-33.902;151.160;2023-03-22T16:46:25;20.70;99.90
44647;DHT22;56315;-33.902;151.160;2023-03-22T16:48:53;20.80;99.90
44647;DHT22;56315;-33.902;151.160;2023-03-22T16:51:24;20.80;99.90
44647;DHT22;56315;-33.902;151.160;2023-03-22T16:53:54;20.80;99.90
44647;DHT22;56315;-33.902;151.160;2023-03-22T16:56:23;20.80;99.90
44647;DHT22;56315;-33.902;151.160;2023-03-22T16:58:57;20.80;99.90
44647;DHT22;56315;-33.902;151.160;2023-03-22T17:01:25;20.80;99.90
44647;DHT22;56315;-33.902;151.160;2023-03-22T17:03:53;20.80;99.90
44647;DHT22;56315;-33.902;151.160;2023-03-22T17:06:22;20.80;99.90
44647;DHT22;56315;-33.902;151.160;2023-03-22T17:08:50;20.80;99.90
44647;DHT22;56315;-33.902;151.160;2023-03-22T17:11:23;20.80;99.90
44647;DHT22;56315;-33.902;151.160;2023-03-22T17:13:53;20.80;99.90